Charleston, SC

6:50 PM EDT on August 21, 2014 (GMT -0400)
1 Cordes Street Charleston SC | Change Station
CLOSE
Current Station
Personal Weather Station
Location: Charleston, SC
Elevation: 0 ft
Nearby Weather Stations
Active Advisory: Heat Advisory Active Notice: Public Information Statement

Elev 0 ft 32.78 °N, 79.93 °W | Updated 20 seconds ago

Partly Cloudy
Partly Cloudy
94.7 °F
Feels Like 114 °F
N
1.0
Wind Variable Wind from NNE
Gusts 1.0 mph

Today
High -- | Low -- °F
--% Chance of Precip.
Yesterday
High -- | Low -- °F
Precip. -- in
6:47 AM 7:58 PM
Waning Crescent, 12% visible
Pressure 30.02 in
Visibility 10.0 miles
Clouds Few 5000 ft
Heat Index 114 °F
Dew Point 80 °F
Humidity 62%
Rainfall 0.00 in
Snow Depth Not available.
UV 1 out of 12
Pollen 7.00 out of 12
Ozone Good
PM2.5 Moderate
Flu Activity Not available.
METAR KJZI 212255Z AUTO 00000KT 10SM FEW050 35/24 A3002 RMK A02 P000

More Conditions Fewer Conditions

Pressure 30.02 in
Visibility 10.0 miles
Clouds Few 5000 ft
Heat Index 114 °F
Dew Point 80 °F
Humidity 62%
Rainfall 0.00 in
Snow Depth Not available.
UV 1 out of 12
Pollen 7.00 out of 12
Ozone Good
PM2.5 Moderate
Flu Activity Not available.
METAR KJZI 212255Z AUTO 00000KT 10SM FEW050 35/24 A3002 RMK A02 P000

More Conditions Fewer Conditions

10-Day Weather Forecast

Almanac

Astronomy

Aug. 21, 2014 Rise Set
Actual Time 6:47 AM EDT 7:58 PM EDT
Civil Twilight 6:21 AM EDT 8:23 PM EDT
Nautical Twilight 5:50 AM EDT 8:54 PM EDT
Astronomical Twilight 5:19 AM EDT 9:25 PM EDT
Moon 3:21 AM EDT 5:21 PM EDT
Length of Visible Light 14h 02m
Length of Day
13h 10m
Tomorrow will be 1m 50s shorter.
Waning Crescent, 12% of the Moon is Illuminated
Today
Waning Crescent
Aug 25
New
Sep 2
First Quarter
Sep 8
Full
Sep 15
Last Quarter

Today's Extremes

State Highs State Lows

Community

WunderPhotos

Upload Photos

1,746,044 photos uploaded!

WunderBlogs® & News

Nearby

Air Quality

  Air Quality AQ Index Pollutant
Yesterday Moderate
PM2.5
Yesterday Good
OZONE
Current Moderate
PM2.5
Current Good
OZONE
Thursday Good
OZONE
Friday Good
OZONE

Snow Depth

Station Depth Elevation
No new snow has been reported.

Earthquake Activity

City Distance Mag. Time & Date
No recent earthquake activity has been reported nearby.
Minimum magnitude displayed is 2.5.

Coastal Water Temperatures

Place Temperature
No Stations Reporting

Nearby Weather Stations